Time;durP1;ratioP1;P1;durP2;ratioP2;P2;SDS_P1;SDS_P2;PMS_P1;PMS_P2;Temp;Humidity;BMP_temperature;BMP_pressure;BME280_temperature;BME280_humidity;BME280_pressure;Samples;Min_cycle;Max_cycle;Signal;HPM_P1;HPM_P2
2022/10/06 00:00:20;;;;;;;671.33;615.28;;;;;;;16.77;nan;101314.13;693723;28;67610;-62
2022/10/06 00:00:42;;;;;;;665.30;609.50;;;;;;;16.78;nan;101309.53;695435;28;21558;-61
2022/10/06 00:01:05;;;;;;;647.47;592.08;;;;;;;16.80;nan;101310.97;695442;28;22376;-61
2022/10/06 00:01:26;;;;;;;666.95;611.15;;;;;;;16.79;nan;101313.94;693717;28;69383;-61
2022/10/06 00:01:47;;;;;;;673.50;617.58;;;;;;;16.80;nan;101310.97;694530;28;46570;-60
2022/10/06 00:02:09;;;;;;;654.50;599.13;;;;;;;16.81;nan;101309.09;695525;28;22391;-61
2022/10/06 00:02:34;;;;;;;657.75;602.17;;;;;;;16.80;nan;101313.69;694464;28;44366;-60
2022/10/06 00:02:55;;;;;;;661.45;605.75;;;;;;;16.82;nan;101310.78;692186;28;115010;-61
2022/10/06 00:03:16;;;;;;;664.50;608.78;;;;;;;16.81;nan;101311.84;695390;28;22346;-61
2022/10/06 00:03:38;;;;;;;666.85;610.97;;;;;;;16.80;nan;101313.69;693100;28;22622;-61
2022/10/06 00:04:00;;;;;;;659.78;604.15;;;;;;;16.80;nan;101312.88;692674;28;21595;-62
2022/10/06 00:04:21;;;;;;;657.35;601.75;;;;;;;16.78;nan;101306.78;691511;28;45319;-60
2022/10/06 00:04:42;;;;;;;664.10;608.47;;;;;;;16.79;nan;101314.78;691533;28;46308;-61
2022/10/06 00:05:04;;;;;;;672.55;616.65;;;;;;;16.77;nan;101308.69;692394;28;23381;-61
2022/10/06 00:05:25;;;;;;;672.30;616.47;;;;;;;16.78;nan;101307.63;691960;28;23399;-60
2022/10/06 00:05:47;;;;;;;667.95;612.13;;;;;;;16.74;nan;101304.47;691726;28;44393;-61
2022/10/06 00:06:10;;;;;;;637.20;582.15;;;;;;;16.75;nan;101306.16;691664;28;45333;-61
2022/10/06 00:06:32;;;;;;;653.95;598.45;;;;;;;16.76;nan;101309.72;690793;28;69441;-59
2022/10/06 00:06:54;;;;;;;662.80;607.13;;;;;;;16.75;nan;101308.88;691204;28;46342;-61
2022/10/06 00:07:17;;;;;;;664.00;607.90;;;;;;;16.75;nan;101313.47;692517;28;22467;-60
2022/10/06 00:07:38;;;;;;;669.05;613.08;;;;;;;16.75;nan;101313.47;690632;28;69832;-61
2022/10/06 00:08:00;;;;;;;661.90;606.28;;;;;;;16.75;nan;101308.03;690837;28;44402;-61
2022/10/06 00:08:21;;;;;;;669.63;613.75;;;;;;;16.74;nan;101306.38;691761;28;45284;-61
2022/10/06 00:08:44;;;;;;;667.30;611.60;;;;;;;16.74;nan;101309.94;692336;28;21719;-61
2022/10/06 00:09:05;;;;;;;660.85;605.35;;;;;;;16.74;nan;101317.28;691000;28;67484;-60
2022/10/06 00:09:26;;;;;;;645.25;590.08;;;;;;;16.73;nan;101312.84;692666;28;21546;-61
2022/10/06 00:09:48;;;;;;;668.13;612.45;;;;;;;16.73;nan;101312.84;692682;28;22432;-60
2022/10/06 00:10:10;;;;;;;651.05;595.78;;;;;;;16.72;nan;101314.75;691986;28;44376;-60
2022/10/06 00:10:31;;;;;;;654.85;599.38;;;;;;;16.74;nan;101317.28;691763;28;44336;-61
2022/10/06 00:10:54;;;;;;;660.00;604.42;;;;;;;16.74;nan;101314.56;692713;28;21536;-61
2022/10/06 00:11:16;;;;;;;641.43;586.30;;;;;;;16.73;nan;101321.88;690982;28;67569;-61
2022/10/06 00:11:38;;;;;;;643.47;588.15;;;;;;;16.74;nan;101320.00;690895;28;69877;-61
2022/10/06 00:11:59;;;;;;;663.00;607.22;;;;;;;16.75;nan;101318.94;691831;28;44376;-62
2022/10/06 00:12:20;;;;;;;665.63;609.85;;;;;;;16.74;nan;101325.47;692559;28;21542;-61
2022/10/06 00:12:43;;;;;;;666.13;610.30;;;;;;;16.74;nan;101325.47;692633;28;23446;-62
2022/10/06 00:13:05;;;;;;;661.95;606.25;;;;;;;16.74;nan;101315.38;690897;28;69666;-61
2022/10/06 00:13:27;;;;;;;649.38;593.85;;;;;;;16.74;nan;101320.00;691306;28;45238;-61
2022/10/06 00:13:49;;;;;;;638.63;583.50;;;;;;;16.75;nan;101318.94;691541;28;44397;-61
2022/10/06 00:14:10;;;;;;;634.70;579.55;;;;;;;16.74;nan;101320.00;691231;28;44388;-61
2022/10/06 00:14:33;;;;;;;649.55;594.08;;;;;;;16.72;nan;101320.22;690314;28;22394;-61
2022/10/06 00:14:54;;;;;;;664.70;608.92;;;;;;;16.73;nan;101324.59;689216;28;69437;-62
2022/10/06 00:15:17;;;;;;;679.85;623.78;;;;;;;16.73;nan;101321.88;692653;28;22392;-62
2022/10/06 00:15:38;;;;;;;653.45;597.92;;;;;;;16.73;nan;101318.31;691164;28;67530;-60
2022/10/06 00:16:01;;;;;;;653.13;597.72;;;;;;;16.72;nan;101322.06;691904;28;46266;-60
2022/10/06 00:16:23;;;;;;;652.83;597.33;;;;;;;16.73;nan;101323.75;691864;28;46557;-61
2022/10/06 00:16:44;;;;;;;654.38;598.92;;;;;;;16.73;nan;101318.31;691883;28;45229;-60
2022/10/06 00:17:05;;;;;;;658.60;602.70;;;;;;;16.71;nan;101320.41;692234;28;23467;-62
2022/10/06 00:17:27;;;;;;;662.40;606.58;;;;;;;16.73;nan;101321.03;692258;28;21546;-61
2022/10/06 00:17:48;;;;;;;661.13;605.55;;;;;;;16.73;nan;101323.75;691942;28;46349;-61
2022/10/06 00:18:09;;;;;;;665.75;610.03;;;;;;;16.73;nan;101331.94;692534;28;23470;-61
2022/10/06 00:18:30;;;;;;;663.17;607.40;;;;;;;16.70;nan;101318.72;691416;28;43462;-61
2022/10/06 00:18:52;;;;;;;639.38;584.15;;;;;;;16.72;nan;101320.22;692611;28;21312;-62
2022/10/06 00:19:14;;;;;;;648.53;592.95;;;;;;;16.74;nan;101320.00;692708;28;22282;-61
2022/10/06 00:19:35;;;;;;;655.28;599.55;;;;;;;16.72;nan;101320.22;691402;28;46651;-61
2022/10/06 00:19:56;;;;;;;663.17;607.38;;;;;;;16.71;nan;101323.13;692572;28;23487;-61
2022/10/06 00:20:17;;;;;;;669.40;613.58;;;;;;;16.71;nan;101321.25;692493;28;21574;-62
2022/10/06 00:20:42;;;;;;;645.88;590.55;;;;;;;16.72;nan;101324.81;691583;28;47188;-61
2022/10/06 00:21:03;;;;;;;656.42;600.92;;;;;;;16.71;nan;101320.41;690103;28;90300;-61
2022/10/06 00:21:25;;;;;;;670.35;614.53;;;;;;;16.70;nan;101318.72;691581;28;42572;-61
2022/10/06 00:21:46;;;;;;;660.22;604.63;;;;;;;16.70;nan;101319.53;692458;28;21527;-62
2022/10/06 00:22:07;;;;;;;677.58;621.63;;;;;;;16.69;nan;101317.88;692332;28;23477;-62
2022/10/06 00:22:33;;;;;;;657.45;602.05;;;;;;;16.71;nan;101325.88;692607;28;21553;-61
2022/10/06 00:22:55;;;;;;;662.83;607.22;;;;;;;16.69;nan;101328.78;688735;28;136213;-61
2022/10/06 00:23:16;;;;;;;656.28;600.80;;;;;;;16.69;nan;101322.47;691874;28;46295;-62
2022/10/06 00:23:38;;;;;;;648.28;592.75;;;;;;;16.69;nan;101327.94;692095;28;22383;-62
2022/10/06 00:24:00;;;;;;;653.72;598.20;;;;;;;16.68;nan;101323.53;692593;28;22371;-62
2022/10/06 00:24:21;;;;;;;668.65;612.65;;;;;;;16.68;nan;101318.09;691794;28;45230;-61
2022/10/06 00:24:42;;;;;;;670.67;614.70;;;;;;;16.68;nan;101326.28;692715;28;23485;-61
2022/10/06 00:25:06;;;;;;;672.75;616.80;;;;;;;16.69;nan;101322.47;692629;28;21583;-59
2022/10/06 00:25:28;;;;;;;681.13;624.78;;;;;;;16.70;nan;101326.91;690151;28;92280;-61
2022/10/06 00:25:50;;;;;;;664.45;608.60;;;;;;;16.69;nan;101322.47;692570;28;22382;-62
2022/10/06 00:26:15;;;;;;;657.45;602.00;;;;;;;16.66;nan;101322.88;691139;28;69517;-61
2022/10/06 00:26:36;;;;;;;656.25;600.67;;;;;;;16.68;nan;101326.28;689335;28;115134;-62
2022/10/06 00:26:57;;;;;;;661.83;605.95;;;;;;;16.67;nan;101330.88;691295;28;21523;-62
2022/10/06 00:27:19;;;;;;;668.47;612.33;;;;;;;16.69;nan;101333.38;686354;28;22585;-62
2022/10/06 00:27:42;;;;;;;637.65;582.55;;;;;;;16.68;nan;101327.09;686183;28;46354;-61
2022/10/06 00:28:03;;;;;;;630.33;575.38;;;;;;;16.69;nan;101328.78;685255;28;69407;-62
2022/10/06 00:28:25;;;;;;;632.22;577.15;;;;;;;16.69;nan;101333.38;686511;28;21535;-62
2022/10/06 00:28:47;;;;;;;656.72;601.10;;;;;;;16.70;nan;101335.91;688327;28;46388;-62
2022/10/06 00:29:12;;;;;;;657.75;602.10;;;;;;;16.65;nan;101330.22;688887;28;46796;-61
2022/10/06 00:29:34;;;;;;;648.45;593.00;;;;;;;16.70;nan;101337.81;685879;28;137967;-62
2022/10/06 00:29:56;;;;;;;643.13;587.83;;;;;;;16.69;nan;101336.13;689805;28;22375;-61
2022/10/06 00:30:19;;;;;;;663.17;607.38;;;;;;;16.69;nan;101336.13;690552;28;995;-61
2022/10/06 00:30:41;;;;;;;640.45;585.17;;;;;;;16.69;nan;101344.28;689219;28;40772;-60
2022/10/06 00:31:02;;;;;;;657.63;602.00;;;;;;;16.68;nan;101338.00;685679;28;69299;-59
2022/10/06 00:31:23;;;;;;;664.30;608.58;;;;;;;16.68;nan;101337.19;686285;28;23495;-61
2022/10/06 00:31:44;;;;;;;660.83;605.15;;;;;;;16.66;nan;101337.38;685534;28;22552;-62
2022/10/06 00:32:07;;;;;;;644.60;589.22;;;;;;;16.68;nan;101339.91;689627;28;21674;-61
2022/10/06 00:32:28;;;;;;;658.13;602.53;;;;;;;16.67;nan;101346.41;690761;28;67330;-60
2022/10/06 00:32:51;;;;;;;666.45;610.70;;;;;;;16.64;nan;101342.19;693008;28;21530;-61
2022/10/06 00:33:14;;;;;;;643.60;588.35;;;;;;;16.66;nan;101340.09;693615;28;69417;-60
2022/10/06 00:33:37;;;;;;;666.72;611.00;;;;;;;16.65;nan;101341.16;692933;28;68224;-61
2022/10/06 00:33:58;;;;;;;667.33;611.55;;;;;;;16.66;nan;101339.25;693601;28;67492;-61
2022/10/06 00:34:19;;;;;;;656.53;601.10;;;;;;;16.66;nan;101340.09;694875;28;21535;-62
2022/10/06 00:34:42;;;;;;;666.78;611.10;;;;;;;16.66;nan;101339.25;695040;28;22407;-62
2022/10/06 00:35:03;;;;;;;662.40;606.92;;;;;;;16.65;nan;101341.16;693532;28;69254;-61
2022/10/06 00:35:27;;;;;;;661.13;605.55;;;;;;;16.66;nan;101341.97;694520;28;10042;-61
2022/10/06 00:35:55;;;;;;;661.58;606.00;;;;;;;16.66;nan;101344.69;690056;28;115235;-61
2022/10/06 00:36:16;;;;;;;668.40;612.47;;;;;;;16.63;nan;101345.09;689006;28;138549;-62
2022/10/06 00:36:38;;;;;;;638.65;583.45;;;;;;;16.64;nan;101344.06;693011;28;23405;-61
2022/10/06 00:37:00;;;;;;;651.30;595.58;;;;;;;16.64;nan;101346.81;689095;28;46395;-61
2022/10/06 00:37:21;;;;;;;680.88;624.25;;;;;;;16.64;nan;101353.09;686772;28;45249;-61
2022/10/06 00:37:43;;;;;;;661.85;606.08;;;;;;;16.64;nan;101349.53;687464;28;22436;-62
2022/10/06 00:38:04;;;;;;;660.05;604.33;;;;;;;16.62;nan;101344.28;688407;28;23463;-61
2022/10/06 00:38:26;;;;;;;663.63;607.78;;;;;;;16.64;nan;101349.53;686932;28;23466;-61
2022/10/06 00:38:48;;;;;;;681.30;625.03;;;;;;;16.64;nan;101352.25;692835;28;46335;-61
2022/10/06 00:39:09;;;;;;;669.53;613.58;;;;;;;16.64;nan;101352.25;692085;28;46614;-61
2022/10/06 00:39:30;;;;;;;652.13;596.65;;;;;;;16.64;nan;101347.63;692194;28;44360;-61
2022/10/06 00:39:52;;;;;;;646.80;591.50;;;;;;;16.64;nan;101352.25;692953;28;21489;-62
2022/10/06 00:40:13;;;;;;;659.42;603.83;;;;;;;16.65;nan;101356.69;690905;28;20247;-61
2022/10/06 00:40:35;;;;;;;673.10;617.15;;;;;;;16.64;nan;101357.72;690073;28;22405;-60
2022/10/06 00:40:56;;;;;;;665.08;609.25;;;;;;;16.64;nan;101350.34;689285;28;69475;-61
2022/10/06 00:41:18;;;;;;;678.60;622.53;;;;;;;16.66;nan;101356.47;692874;28;21525;-61
2022/10/06 00:41:39;;;;;;;674.60;618.58;;;;;;;16.66;nan;101350.16;692852;28;22159;-61
2022/10/06 00:42:01;;;;;;;659.53;603.88;;;;;;;16.66;nan;101355.59;692947;28;22403;-62
2022/10/06 00:42:23;;;;;;;634.45;579.38;;;;;;;16.66;nan;101352.88;692519;28;43734;-61
2022/10/06 00:42:50;;;;;;;643.55;588.33;;;;;;;16.65;nan;101348.50;695635;28;46792;-61
2022/10/06 00:43:48;;;;;;;664.97;609.20;;;;;;;16.64;nan;101352.25;694109;28;138697;-61
2022/10/06 00:44:10;;;;;;;673.20;617.30;;;;;;;16.64;nan;101347.63;691012;28;157413;-62
2022/10/06 00:44:31;;;;;;;672.50;616.60;;;;;;;16.64;nan;101347.63;693995;28;69452;-61
2022/10/06 00:44:53;;;;;;;661.22;605.53;;;;;;;16.65;nan;101353.94;695694;28;21610;-61
2022/10/06 00:45:15;;;;;;;667.63;611.78;;;;;;;16.65;nan;101351.22;692876;28;22110;-62
2022/10/06 00:45:39;;;;;;;672.40;616.45;;;;;;;16.65;nan;101354.78;692218;28;44405;-60
2022/10/06 00:46:00;;;;;;;666.50;610.65;;;;;;;16.66;nan;101359.19;690570;28;92061;-61
2022/10/06 00:46:27;;;;;;;653.80;598.30;;;;;;;16.67;nan;101352.69;692915;28;21559;-62
2022/10/06 00:46:52;;;;;;;678.30;622.15;;;;;;;16.69;nan;101357.94;686402;28;137654;-61
2022/10/06 00:47:13;;;;;;;680.60;623.97;;;;;;;16.69;nan;101353.34;689091;28;113634;-62
2022/10/06 00:47:35;;;;;;;665.53;609.45;;;;;;;16.71;nan;101351.25;692271;28;46230;-62
2022/10/06 00:47:59;;;;;;;667.67;611.78;;;;;;;16.71;nan;101348.50;692031;28;44362;-61
2022/10/06 00:48:23;;;;;;;689.13;632.72;;;;;;;16.71;nan;101351.25;692747;28;90695;-61
2022/10/06 00:48:45;;;;;;;681.30;625.08;;;;;;;16.71;nan;101353.97;690286;28;83861;-62
2022/10/06 00:49:12;;;;;;;660.17;604.65;;;;;;;16.72;nan;101352.94;692978;28;67530;-62
2022/10/06 00:49:35;;;;;;;670.15;614.28;;;;;;;16.70;nan;101351.44;688355;28;137612;-62
2022/10/06 00:50:01;;;;;;;665.25;609.10;;;;;;;16.70;nan;101346.00;692149;28;36381;-62
2022/10/06 00:50:23;;;;;;;695.92;639.28;;;;;;;16.72;nan;101354.81;687147;28;115117;-62
2022/10/06 00:50:44;;;;;;;682.60;626.33;;;;;;;16.70;nan;101351.44;690952;28;23435;-62
2022/10/06 00:51:06;;;;;;;660.90;605.15;;;;;;;16.72;nan;101349.34;691840;28;46486;-61
2022/10/06 00:51:31;;;;;;;642.90;587.47;;;;;;;16.72;nan;101352.06;692758;28;16143;-62
2022/10/06 00:51:56;;;;;;;642.42;587.13;;;;;;;16.70;nan;101359.63;691264;28;67272;-62
2022/10/06 00:52:20;;;;;;;662.92;607.17;;;;;;;16.71;nan;101353.97;689550;28;114624;-62
2022/10/06 00:52:43;;;;;;;668.55;612.53;;;;;;;16.74;nan;101358.19;690049;28;92659;-62
2022/10/06 00:53:05;;;;;;;659.83;603.90;;;;;;;16.73;nan;101362.78;691024;28;46310;-62
2022/10/06 00:53:27;;;;;;;663.05;606.78;;;;;;;16.74;nan;101360.91;692673;28;4568;-62
2022/10/06 00:53:49;;;;;;;660.25;604.35;;;;;;;16.73;nan;101359.22;690863;28;69317;-62
2022/10/06 00:54:12;;;;;;;660.10;604.25;;;;;;;16.73;nan;101365.50;691853;28;44370;-62
2022/10/06 00:54:35;;;;;;;651.08;595.58;;;;;;;16.72;nan;101360.25;692028;28;41929;-60
2022/10/06 00:54:57;;;;;;;668.47;612.38;;;;;;;16.74;nan;101358.19;691898;28;46316;-61
2022/10/06 00:55:19;;;;;;;676.55;620.20;;;;;;;16.75;nan;101358.00;690743;28;67471;-62
2022/10/06 00:55:40;;;;;;;658.03;602.25;;;;;;;16.76;nan;101356.09;692484;28;23459;-62
2022/10/06 00:56:02;;;;;;;649.83;594.17;;;;;;;16.75;nan;101357.13;691940;28;46286;-61
2022/10/06 00:56:23;;;;;;;664.08;608.17;;;;;;;16.76;nan;101351.47;691772;28;46382;-62
2022/10/06 00:56:45;;;;;;;674.65;618.60;;;;;;;16.76;nan;101353.38;692668;28;23747;-62
2022/10/06 00:57:06;;;;;;;660.58;604.50;;;;;;;16.78;nan;101347.69;692062;28;44150;-61
2022/10/06 00:57:29;;;;;;;649.22;593.75;;;;;;;16.78;nan;101353.16;691286;28;22374;-62
2022/10/06 00:57:51;;;;;;;659.58;603.92;;;;;;;16.78;nan;101353.16;689119;28;69327;-62
2022/10/06 00:58:12;;;;;;;657.67;602.05;;;;;;;16.80;nan;101356.50;692333;28;45234;-62
2022/10/06 00:58:33;;;;;;;656.00;600.35;;;;;;;16.81;nan;101347.31;686465;28;21797;-61
2022/10/06 00:58:56;;;;;;;650.78;595.17;;;;;;;16.82;nan;101354.41;687190;28;23267;-62
2022/10/06 00:59:18;;;;;;;650.88;595.40;;;;;;;16.83;nan;101356.09;687225;28;44314;-61
2022/10/06 00:59:40;;;;;;;655.92;600.40;;;;;;;16.82;nan;101360.75;687874;28;70096;-62
2022/10/06 01:00:02;;;;;;;676.22;620.22;;;;;;;16.84;nan;101352.34;689345;28;46224;-60
2022/10/06 01:00:24;;;;;;;665.88;609.97;;;;;;;16.85;nan;101357.59;690704;28;46400;-62
2022/10/06 01:00:46;;;;;;;653.75;598.28;;;;;;;16.86;nan;101351.09;694075;28;46274;-62
2022/10/06 01:01:10;;;;;;;682.33;626.20;;;;;;;16.87;nan;101354.69;688767;28;45258;-62
2022/10/06 01:01:31;;;;;;;659.45;603.90;;;;;;;16.88;nan;101359.09;687669;28;92266;-62
2022/10/06 01:01:57;;;;;;;638.35;583.45;;;;;;;16.87;nan;101358.25;690079;28;23458;-62
2022/10/06 01:02:21;;;;;;;653.70;598.42;;;;;;;16.82;nan;101358.00;685283;28;161095;-62
2022/10/06 01:02:45;;;;;;;648.33;593.03;;;;;;;16.90;nan;101363.31;688251;28;92279;-62
2022/10/06 01:03:09;;;;;;;662.83;607.17;;;;;;;16.90;nan;101360.59;692433;28;92264;-62
2022/10/06 01:03:34;;;;;;;682.22;625.92;;;;;;;16.91;nan;101359.53;691792;28;115019;-62
2022/10/06 01:03:59;;;;;;;656.72;601.22;;;;;;;16.92;nan;101357.66;693261;28;91992;-62
2022/10/06 01:04:21;;;;;;;662.70;606.85;;;;;;;16.92;nan;101358.47;692237;28;113557;-61
2022/10/06 01:04:46;;;;;;;676.50;620.45;;;;;;;16.92;nan;101358.47;694846;28;46369;-62
2022/10/06 01:05:08;;;;;;;680.45;624.30;;;;;;;16.93;nan;101357.44;691672;28;136959;-61
2022/10/06 01:05:32;;;;;;;667.50;611.67;;;;;;;16.93;nan;101357.44;693833;28;67488;-62
2022/10/06 01:05:53;;;;;;;666.50;610.60;;;;;;;16.96;nan;101360.81;693928;28;69367;-60
2022/10/06 01:06:14;;;;;;;673.60;617.50;;;;;;;16.96;nan;101361.66;694764;28;46331;-61
2022/10/06 01:06:43;;;;;;;668.55;612.70;;;;;;;16.98;nan;101366.91;692405;28;23477;-62
2022/10/06 01:07:06;;;;;;;670.22;613.95;;;;;;;16.99;nan;101363.13;685817;28;137887;-62
2022/10/06 01:07:28;;;;;;;643.25;587.70;;;;;;;16.98;nan;101366.91;686497;28;46402;-62
2022/10/06 01:07:49;;;;;;;655.83;600.15;;;;;;;17.00;nan;101360.19;686839;28;45025;-62
2022/10/06 01:08:11;;;;;;;648.30;592.85;;;;;;;17.02;nan;101360.00;687509;28;22160;-62
2022/10/06 01:08:32;;;;;;;658.53;602.83;;;;;;;17.00;nan;101357.47;687528;28;46159;-62
2022/10/06 01:08:53;;;;;;;674.78;618.72;;;;;;;17.02;nan;101357.25;690967;28;22382;-62
2022/10/06 01:09:15;;;;;;;667.15;611.30;;;;;;;17.02;nan;101362.72;690008;28;46421;-62
2022/10/06 01:09:37;;;;;;;647.70;592.20;;;;;;;17.03;nan;101364.41;692101;28;44382;-62
2022/10/06 01:09:59;;;;;;;656.55;600.88;;;;;;;17.04;nan;101371.56;690067;28;21482;-62
2022/10/06 01:10:21;;;;;;;658.95;603.25;;;;;;;17.04;nan;101363.38;689377;28;46098;-62
2022/10/06 01:10:42;;;;;;;680.00;623.80;;;;;;;17.03;nan;101362.50;686771;28;46395;-62
2022/10/06 01:11:03;;;;;;;665.55;609.78;;;;;;;17.05;nan;101354.13;685435;28;22384;-62
2022/10/06 01:11:25;;;;;;;653.72;598.17;;;;;;;17.05;nan;101354.13;687232;28;21265;-61
2022/10/06 01:11:48;;;;;;;664.45;608.53;;;;;;;17.04;nan;101363.38;686495;28;67505;-62
2022/10/06 01:12:09;;;;;;;659.03;603.42;;;;;;;17.06;nan;101353.91;688615;28;69307;-62
2022/10/06 01:12:32;;;;;;;666.88;610.97;;;;;;;17.06;nan;101356.66;690074;28;21740;-62
2022/10/06 01:12:53;;;;;;;664.83;609.05;;;;;;;17.07;nan;101365.69;687468;28;45019;-62
2022/10/06 01:13:16;;;;;;;670.67;614.88;;;;;;;17.06;nan;101361.28;690989;28;978;-62
2022/10/06 01:13:37;;;;;;;671.47;615.53;;;;;;;17.08;nan;101360.03;684469;28;90705;-62
2022/10/06 01:13:59;;;;;;;669.25;613.40;;;;;;;17.09;nan;101355.41;687587;28;23222;-62
2022/10/06 01:14:22;;;;;;;662.08;606.42;;;;;;;17.09;nan;101350.78;690183;28;22259;-62
2022/10/06 01:14:44;;;;;;;651.33;596.00;;;;;;;17.11;nan;101356.03;689497;28;69221;-62
2022/10/06 01:15:06;;;;;;;671.17;615.42;;;;;;;17.12;nan;101360.47;689429;28;45177;-62
2022/10/06 01:15:28;;;;;;;641.20;586.30;;;;;;;17.14;nan;101365.72;686897;28;69789;-62
2022/10/06 01:15:51;;;;;;;648.33;593.15;;;;;;;17.14;nan;101352.91;687460;28;23505;-62
2022/10/06 01:16:17;;;;;;;664.08;608.45;;;;;;;17.14;nan;101358.34;685211;28;89522;-62
2022/10/06 01:16:41;;;;;;;673.10;617.05;;;;;;;17.15;nan;101359.19;683444;28;137896;-62
2022/10/06 01:17:06;;;;;;;650.28;594.75;;;;;;;17.15;nan;101357.31;683955;28;92222;-61
2022/10/06 01:17:30;;;;;;;644.78;589.40;;;;;;;17.15;nan;101356.44;686072;28;116633;-62
2022/10/06 01:17:54;;;;;;;667.33;611.47;;;;;;;17.16;nan;101352.69;689850;28;92102;-62
2022/10/06 01:18:18;;;;;;;652.47;596.92;;;;;;;17.16;nan;101361.72;688362;28;69432;-61
2022/10/06 01:18:41;;;;;;;649.35;594.00;;;;;;;17.16;nan;101356.25;687275;28;92266;-62
2022/10/06 01:19:04;;;;;;;659.28;603.75;;;;;;;17.17;nan;101368.03;689637;28;90576;-62
2022/10/06 01:19:34;;;;;;;653.80;598.30;;;;;;;17.18;nan;101354.19;691566;28;67606;-62
2022/10/06 01:19:58;;;;;;;636.08;580.90;;;;;;;17.20;nan;101362.16;688760;28;138559;-63
2022/10/06 01:20:20;;;;;;;638.88;583.70;;;;;;;17.20;nan;101363.00;687860;28;92068;-62
2022/10/06 01:20:44;;;;;;;635.00;580.05;;;;;;;17.22;nan;101358.16;689650;28;45254;-62
2022/10/06 01:21:10;;;;;;;649.25;593.85;;;;;;;17.20;nan;101359.44;687918;28;93203;-62
2022/10/06 01:21:34;;;;;;;649.75;594.22;;;;;;;17.22;nan;101357.31;683198;28;137985;-62
2022/10/06 01:21:57;;;;;;;643.40;588.00;;;;;;;17.22;nan;101354.59;687828;28;69051;-62
2022/10/06 01:22:26;;;;;;;617.35;562.75;;;;;;;17.22;nan;101363.63;688555;28;69439;-62
2022/10/06 01:22:51;;;;;;;631.90;576.97;;;;;;;17.24;nan;101357.94;686363;28;138397;-62
2022/10/06 01:23:12;;;;;;;638.30;583.08;;;;;;;17.23;nan;101351.66;689870;28;113566;-62
2022/10/06 01:23:36;;;;;;;672.35;616.25;;;;;;;17.22;nan;101355.44;686728;28;22340;-62
2022/10/06 01:23:57;;;;;;;664.03;607.90;;;;;;;17.22;nan;101363.63;690297;28;90283;-62
2022/10/06 01:24:20;;;;;;;666.47;610.47;;;;;;;17.24;nan;101361.53;691131;28;69420;-62
2022/10/06 01:24:42;;;;;;;660.83;605.15;;;;;;;17.22;nan;101357.31;691918;28;46355;-62
2022/10/06 01:25:05;;;;;;;646.50;591.10;;;;;;;17.25;nan;101363.22;688893;28;44206;-62
2022/10/06 01:25:27;;;;;;;640.67;585.30;;;;;;;17.26;nan;101364.91;687354;28;67465;-62
2022/10/06 01:25:48;;;;;;;642.70;587.45;;;;;;;17.27;nan;101363.00;687794;28;46208;-62
2022/10/06 01:26:11;;;;;;;631.38;576.17;;;;;;;17.27;nan;101363.00;690133;28;21520;-62
2022/10/06 01:26:36;;;;;;;637.05;581.80;;;;;;;17.28;nan;101356.50;688459;28;64032;-61
2022/10/06 01:26:57;;;;;;;629.55;574.42;;;;;;;17.30;nan;101368.03;684994;28;115080;-62
2022/10/06 01:27:19;;;;;;;634.13;578.63;;;;;;;17.29;nan;101352.72;687366;28;22379;-62
2022/10/06 01:27:44;;;;;;;658.88;603.22;;;;;;;17.31;nan;101361.53;686638;28;44392;-62
2022/10/06 01:28:08;;;;;;;649.97;594.78;;;;;;;17.31;nan;101353.34;685706;28;115892;-62
2022/10/06 01:28:29;;;;;;;639.88;584.78;;;;;;;17.32;nan;101363.25;686128;28;92213;-61
2022/10/06 01:28:51;;;;;;;649.20;593.97;;;;;;;17.32;nan;101360.50;684935;28;19802;-62
2022/10/06 01:29:14;;;;;;;649.30;594.10;;;;;;;17.33;nan;101358.63;683903;28;90704;-62
2022/10/06 01:29:36;;;;;;;642.70;587.50;;;;;;;17.32;nan;101354.19;687309;28;21524;-62
2022/10/06 01:29:58;;;;;;;636.83;581.75;;;;;;;17.33;nan;101356.72;683513;28;45228;-62
2022/10/06 01:30:22;;;;;;;625.33;570.53;;;;;;;17.32;nan;101363.25;683984;28;69441;-62
2022/10/06 01:30:49;;;;;;;629.47;574.60;;;;;;;17.33;nan;101355.88;688274;28;67470;-62
2022/10/06 01:31:11;;;;;;;639.83;584.67;;;;;;;17.33;nan;101361.34;686960;28;137795;-62
2022/10/06 01:31:34;;;;;;;652.83;597.30;;;;;;;17.32;nan;101362.38;688035;28;45245;-62
2022/10/06 01:31:55;;;;;;;648.95;593.42;;;;;;;17.32;nan;101360.50;688461;28;44353;-62
2022/10/06 01:32:16;;;;;;;636.35;581.33;;;;;;;17.32;nan;101359.66;687545;28;22393;-62
2022/10/06 01:32:39;;;;;;;637.53;582.42;;;;;;;17.32;nan;101362.38;687509;28;21212;-61
2022/10/06 01:33:01;;;;;;;631.10;576.10;;;;;;;17.32;nan;101360.50;685656;28;69010;-64
2022/10/06 01:33:22;;;;;;;634.42;579.25;;;;;;;17.33;nan;101372.25;687449;28;44409;-62
2022/10/06 01:33:50;;;;;;;642.63;587.28;;;;;;;17.34;nan;101368.50;686830;28;66412;-61
2022/10/06 01:34:11;;;;;;;632.72;577.72;;;;;;;17.34;nan;101366.59;685848;28;137548;-61
2022/10/06 01:34:32;;;;;;;647.30;591.97;;;;;;;17.34;nan;101366.59;689022;28;22340;-61
2022/10/06 01:34:54;;;;;;;648.38;592.97;;;;;;;17.33;nan;101361.34;686614;28;44365;-61
2022/10/06 01:35:17;;;;;;;648.90;593.42;;;;;;;17.34;nan;101373.97;684097;28;45243;-62
2022/10/06 01:35:38;;;;;;;650.00;594.60;;;;;;;17.36;nan;101369.13;684595;28;69290;-62
2022/10/06 01:36:01;;;;;;;630.47;575.63;;;;;;;17.36;nan;101366.38;683882;28;46309;-62
2022/10/06 01:36:22;;;;;;;637.10;582.03;;;;;;;17.35;nan;101360.09;685444;28;46399;-62
2022/10/06 01:36:47;;;;;;;653.83;598.30;;;;;;;17.34;nan;101365.75;689191;28;12806;-62
2022/10/06 01:37:09;;;;;;;651.35;595.65;;;;;;;17.38;nan;101367.00;690796;28;22187;-61
2022/10/06 01:37:31;;;;;;;654.22;598.63;;;;;;;17.37;nan;101368.09;691903;28;44408;-62
2022/10/06 01:37:53;;;;;;;659.22;603.70;;;;;;;17.37;nan;101381.75;688752;28;69424;-62
2022/10/06 01:38:15;;;;;;;646.78;591.42;;;;;;;17.38;nan;101376.06;689471;28;46346;-62
2022/10/06 01:38:37;;;;;;;642.58;587.25;;;;;;;17.39;nan;101369.53;687983;28;46252;-61
2022/10/06 01:38:59;;;;;;;629.03;574.05;;;;;;;17.40;nan;101379.44;689209;28;46136;-62
2022/10/06 01:39:21;;;;;;;641.97;586.72;;;;;;;17.39;nan;101372.28;689090;28;46375;-61
2022/10/06 01:39:42;;;;;;;624.25;569.45;;;;;;;17.40;nan;101376.69;686937;28;46401;-62
2022/10/06 01:40:04;;;;;;;637.40;582.33;;;;;;;17.38;nan;101376.06;688499;28;11346;-61
2022/10/06 01:40:28;;;;;;;674.80;618.83;;;;;;;17.39;nan;101374.16;686330;28;44341;-62
2022/10/06 01:40:51;;;;;;;634.42;579.38;;;;;;;17.40;nan;101384.06;683478;28;93508;-61
2022/10/06 01:41:13;;;;;;;623.90;569.20;;;;;;;17.42;nan;101385.50;683142;28;69304;-62
2022/10/06 01:41:35;;;;;;;630.78;575.97;;;;;;;17.41;nan;101375.66;685269;28;45447;-62
2022/10/06 01:41:57;;;;;;;642.60;587.53;;;;;;;17.41;nan;101372.94;683249;28;69019;-62
2022/10/06 01:42:18;;;;;;;659.05;603.45;;;;;;;17.43;nan;101384.47;687516;28;18825;-62
2022/10/06 01:42:40;;;;;;;620.75;565.88;;;;;;;17.43;nan;101380.91;689426;28;21539;-61
2022/10/06 01:43:02;;;;;;;628.28;573.38;;;;;;;17.43;nan;101375.44;687582;28;22395;-62
2022/10/06 01:43:28;;;;;;;627.22;572.30;;;;;;;17.44;nan;101379.84;683563;28;60286;-62
2022/10/06 01:43:50;;;;;;;625.42;570.58;;;;;;;17.42;nan;101373.75;683483;28;22414;-62